Potomac — WBF7534 — position and weather

sailwx.info

Track history (hours):
 
Tides and Currents Weather Stations Pressure Air Temp Water Temp Dewpoint Dewpoint Depression Visibility Wind Speed Wind Dir Waves Ship Positions

Potomac

Owner: POTOMAC ASSOCIATION, OAKLAND, CA. More information available from US FCC via Universal Licensing System and Coast Guard Vessel Documentation Center.

Last reported at 2016-Sep-25 04:33 UTC. Time now 2016-Sep-26 19:01 UTC.
Position N 37°48' W 122°17'.

Length 51 m; draft 3.1 m.

MMSI: 367166810.

Date/timePositionNaut miles runAvg speedWind from/ knotsBaromVisibWave heightAir tempDewpointWater temp
2016-Sep-25 04:33N 37°48' W 122°17'0 0.0
2016-Sep-25 00:31N 37°48' W 122°17'0 0.0
2016-Sep-24 22:31N 37°48' W 122°17'0 0.0
2016-Sep-24 21:31N 37°48' W 122°17'1 0.4
2016-Sep-24 19:33N 37°48' W 122°18'8 8.2
2016-Sep-24 18:33N 37°52' W 122°27'9 8.9
2016-Sep-24 17:33N 37°48' W 122°17'0 0.0
2016-Sep-24 16:33N 37°48' W 122°17'0 0.0
2016-Sep-22 20:34N 37°48' W 122°17'  
2016-Sep-19 19:31N 37°48' W 122°17'0 0.0
2016-Sep-19 18:31N 37°48' W 122°17'0 0.0
2016-Sep-19 16:28N 37°48' W 122°17'0 0.0
2016-Sep-19 14:31N 37°48' W 122°17'0 0.0
2016-Sep-18 02:13N 37°48' W 122°17'5 7.4
2016-Sep-18 01:31N 37°47' W 122°23'2 2.1
2016-Sep-18 00:32N 37°48' W 122°22'4 1.9
2016-Sep-17 22:33N 37°48' W 122°17'0 0.0
2016-Sep-17 04:22N 37°48' W 122°17'5 1.3
2016-Sep-17 00:33N 37°48' W 122°23'5 0.2
2016-Sep-15 21:11N 37°48' W 122°17'0 0.0
2016-Sep-15 20:32N 37°48' W 122°17'9 4.3
2016-Sep-15 18:34N 37°52' W 122°26'  
Track history (hours):
 
Tides and Currents Weather Stations Pressure Air Temp Water Temp Dewpoint Dewpoint Depression Visibility Wind Speed Wind Dir Waves Ship Positions

Potomac

Owner: POTOMAC ASSOCIATION, OAKLAND, CA. More information available from US FCC via Universal Licensing System and Coast Guard Vessel Documentation Center.

Last reported at 2016-Sep-25 04:33 UTC. Time now 2016-Sep-26 19:01 UTC.
Position N 37°48' W 122°17'.

Length 51 m; draft 3.1 m.

MMSI: 367166810.

Date/timePositionNaut miles runAvg speedWind from/ knotsBaromVisibWave heightAir tempDewpointWater temp
2016-Sep-25 04:33N 37°48' W 122°17'0 0.0
2016-Sep-25 00:31N 37°48' W 122°17'0 0.0
2016-Sep-24 22:31N 37°48' W 122°17'0 0.0
2016-Sep-24 21:31N 37°48' W 122°17'1 0.4
2016-Sep-24 19:33N 37°48' W 122°18'8 8.2
2016-Sep-24 18:33N 37°52' W 122°27'9 8.9
2016-Sep-24 17:33N 37°48' W 122°17'0 0.0
2016-Sep-24 16:33N 37°48' W 122°17'0 0.0
2016-Sep-22 20:34N 37°48' W 122°17'  
2016-Sep-19 19:31N 37°48' W 122°17'0 0.0
2016-Sep-19 18:31N 37°48' W 122°17'0 0.0
2016-Sep-19 16:28N 37°48' W 122°17'0 0.0
2016-Sep-19 14:31N 37°48' W 122°17'0 0.0
2016-Sep-18 02:13N 37°48' W 122°17'5 7.4
2016-Sep-18 01:31N 37°47' W 122°23'2 2.1
2016-Sep-18 00:32N 37°48' W 122°22'4 1.9
2016-Sep-17 22:33N 37°48' W 122°17'0 0.0
2016-Sep-17 04:22N 37°48' W 122°17'5 1.3
2016-Sep-17 00:33N 37°48' W 122°23'5 0.2
2016-Sep-15 21:11N 37°48' W 122°17'0 0.0
2016-Sep-15 20:32N 37°48' W 122°17'9 4.3
2016-Sep-15 18:34N 37°52' W 122°26'  

Dump ship's entire track history